createdAt,value
2022-11-29T00:01:33.870Z,102039.75
2022-11-29T00:03:37.660Z,102036.69
2022-11-29T00:05:40.407Z,102032.03
2022-11-29T00:07:43.159Z,102028.53
2022-11-29T00:09:45.881Z,102030.34
2022-11-29T00:12:07.125Z,102032.03
2022-11-29T00:14:12.133Z,102025.84
2022-11-29T00:16:16.002Z,102026.69
2022-11-29T00:18:18.687Z,102031.91
2022-11-29T00:20:21.378Z,102023.72
2022-11-29T00:22:25.546Z,102023.00
2022-11-29T00:24:28.600Z,102031.19
2022-11-29T00:26:31.300Z,102019.81
2022-11-29T00:28:35.309Z,102023.06
2022-11-29T00:30:38.104Z,102019.56
2022-11-29T00:32:40.758Z,102023.06
2022-11-29T00:34:43.706Z,102016.03
2022-11-29T00:36:46.605Z,102020.38
2022-11-29T00:38:49.454Z,102022.22
2022-11-29T00:40:52.903Z,102028.28
2022-11-29T00:42:55.650Z,102026.44
2022-11-29T00:44:58.326Z,102021.94
2022-11-29T00:47:01.081Z,102017.31
2022-11-29T00:49:04.666Z,102021.66
2022-11-29T00:51:07.927Z,102019.31
2022-11-29T00:53:10.747Z,102022.53
2022-11-29T00:55:13.391Z,102026.19
2022-11-29T00:57:16.064Z,102025.91
2022-11-29T00:59:18.791Z,102030.25
2022-11-29T01:01:21.543Z,102024.78
2022-11-29T01:03:24.847Z,102021.53
2022-11-29T01:05:27.564Z,102033.25
2022-11-29T01:07:30.301Z,102015.94
2022-11-29T01:09:33.043Z,102025.22
2022-11-29T01:11:35.951Z,102027.88
2022-11-29T01:13:39.302Z,102019.88
2022-11-29T01:15:42.346Z,102015.41
2022-11-29T01:17:45.090Z,102028.41
2022-11-29T01:19:50.811Z,102013.63
2022-11-29T01:21:53.919Z,102024.00
2022-11-29T01:23:57.190Z,102027.00
2022-11-29T01:26:02.934Z,102020.63
2022-11-29T01:28:05.634Z,102024.16
2022-11-29T01:30:10.310Z,102022.19
2022-11-29T01:32:13.026Z,102019.41
2022-11-29T01:34:15.671Z,102029.13
2022-11-29T01:36:18.439Z,102026.88
2022-11-29T01:38:22.618Z,102024.22
2022-11-29T01:40:25.298Z,102023.25
2022-11-29T01:42:28.066Z,102022.09
2022-11-29T01:44:30.910Z,102023.91
2022-11-29T01:46:37.000Z,102022.09
2022-11-29T01:48:39.896Z,102021.94
2022-11-29T01:50:43.381Z,102015.59
2022-11-29T01:52:46.559Z,102017.41
2022-11-29T01:54:53.001Z,102019.19
2022-11-29T01:56:56.218Z,102011.63
2022-11-29T01:59:02.589Z,102018.34
2022-11-29T02:01:05.310Z,102017.81
2022-11-29T02:03:17.104Z,102027.00
2022-11-29T02:05:20.368Z,102017.56
2022-11-29T02:07:23.099Z,102023.06
2022-11-29T02:09:25.846Z,102007.47
2022-11-29T02:11:31.155Z,102020.09
2022-11-29T02:13:52.818Z,102021.94
2022-11-29T02:16:23.878Z,102019.63
2022-11-29T02:19:14.223Z,102017.53
2022-11-29T02:21:34.279Z,102017.81
2022-11-29T02:24:01.302Z,102017.41
2022-11-29T02:26:37.873Z,102010.38
2022-11-29T02:28:49.468Z,102023.91
2022-11-29T02:31:29.299Z,102006.31
2022-11-29T02:34:07.100Z,102012.28
2022-11-29T02:36:32.094Z,102016.69
2022-11-29T02:38:56.487Z,102014.44
2022-11-29T02:41:31.151Z,102011.47
2022-11-29T02:44:12.683Z,102012.34
2022-11-29T02:46:45.550Z,102010.31
2022-11-29T02:48:58.462Z,102019.22
2022-11-29T02:51:24.376Z,102005.84
2022-11-29T02:53:37.453Z,102012.88
2022-11-29T02:56:24.128Z,102009.06
2022-11-29T02:58:35.674Z,102004.41
2022-11-29T03:00:50.439Z,102006.94
2022-11-29T03:03:04.813Z,102006.94
2022-11-29T03:05:17.975Z,102014.09
2022-11-29T03:07:20.678Z,102009.59
2022-11-29T03:09:33.426Z,102003.25
2022-11-29T03:12:08.115Z,102013.94
2022-11-29T03:14:52.516Z,102007.78
2022-11-29T03:17:09.132Z,102008.91
2022-11-29T03:19:37.372Z,102013.69
2022-11-29T03:22:10.287Z,102013.69
2022-11-29T03:24:18.837Z,102015.41
2022-11-29T03:26:30.045Z,102010.88
2022-11-29T03:28:38.401Z,102017.38
2022-11-29T03:30:50.036Z,102016.56
2022-11-29T03:33:31.023Z,102013.75
2022-11-29T03:36:30.298Z,102013.44
2022-11-29T03:38:47.883Z,102009.94
2022-11-29T03:41:10.354Z,102013.63
2022-11-29T03:43:30.845Z,102010.38
2022-11-29T03:45:42.879Z,102011.53
2022-11-29T03:48:05.413Z,102014.19
2022-11-29T03:50:16.562Z,102007.63
2022-11-29T03:52:48.231Z,102003.59
2022-11-29T03:55:03.487Z,102010.47
2022-11-29T03:57:07.252Z,102012.69
2022-11-29T03:59:12.637Z,102012.41
2022-11-29T04:01:41.626Z,102002.41
2022-11-29T04:04:08.300Z,102009.16
2022-11-29T04:06:19.954Z,102007.16
2022-11-29T04:09:00.204Z,102016.16
2022-11-29T04:11:30.551Z,102015.34
2022-11-29T04:14:02.058Z,102019.16
2022-11-29T04:16:28.647Z,102011.97
2022-11-29T04:18:46.004Z,102017.16
2022-11-29T04:21:32.851Z,102025.19
2022-11-29T04:23:51.920Z,102012.97
2022-11-29T04:26:39.213Z,102024.34
2022-11-29T04:29:12.997Z,102016.34
2022-11-29T04:31:38.333Z,102017.31
2022-11-29T04:33:59.573Z,102014.50
2022-11-29T04:36:25.365Z,102011.00
2022-11-29T04:38:50.770Z,102011.81
2022-11-29T04:41:22.525Z,102016.16
2022-11-29T04:43:25.095Z,102019.72
2022-11-29T04:45:55.497Z,102016.34
2022-11-29T04:48:10.906Z,102017.16
2022-11-29T04:50:19.543Z,102014.63
2022-11-29T04:53:07.367Z,102016.56
2022-11-29T04:55:30.863Z,102017.81
2022-11-29T04:58:03.247Z,102019.75
2022-11-29T05:00:32.825Z,102010.78
2022-11-29T05:02:40.071Z,102023.44
2022-11-29T05:05:24.675Z,102014.75
2022-11-29T05:07:57.886Z,102023.03
2022-11-29T05:10:29.593Z,102037.69
2022-11-29T05:12:48.723Z,102039.97
2022-11-29T05:15:26.943Z,102031.56
2022-11-29T05:17:57.693Z,102032.00
2022-11-29T05:20:24.484Z,102029.63
2022-11-29T05:22:53.222Z,102026.94
2022-11-29T05:25:27.804Z,102031.28
2022-11-29T05:27:58.803Z,102024.97
2022-11-29T05:30:22.167Z,102031.44
2022-11-29T05:32:24.629Z,102038.63
2022-11-29T05:34:53.345Z,102036.50
2022-11-29T05:37:17.800Z,102041.72
2022-11-29T05:39:32.597Z,102042.53
2022-11-29T05:41:43.949Z,102045.09
2022-11-29T05:44:10.637Z,102047.47
2022-11-29T05:46:23.283Z,102046.19
2022-11-29T05:49:18.175Z,102052.38
2022-11-29T05:51:29.605Z,102055.75
2022-11-29T05:53:50.141Z,102051.09
2022-11-29T05:56:10.886Z,102058.84
2022-11-29T05:58:19.394Z,102059.16
2022-11-29T06:00:22.611Z,102064.06
2022-11-29T06:02:28.166Z,102055.50
2022-11-29T06:05:04.149Z,102059.81
2022-11-29T06:07:24.976Z,102059.38
2022-11-29T06:09:57.040Z,102060.78
2022-11-29T06:12:24.468Z,102061.59
2022-11-29T06:14:49.459Z,102062.41
2022-11-29T06:16:57.759Z,102071.66
2022-11-29T06:23:11.715Z,102073.25
2022-11-29T06:25:33.143Z,102067.34
2022-11-29T06:28:06.879Z,102071.16
2022-11-29T06:30:16.166Z,102071.16
2022-11-29T06:32:22.065Z,102071.44
2022-11-29T06:34:38.480Z,102063.59
2022-11-29T06:37:20.261Z,102060.75
2022-11-29T06:39:23.239Z,102056.00
2022-11-29T06:41:26.275Z,102063.91
2022-11-29T06:43:29.902Z,102059.38
2022-11-29T06:45:32.922Z,102066.13
2022-11-29T06:47:49.955Z,102067.00
2022-11-29T06:50:04.675Z,102063.50
2022-11-29T06:52:27.590Z,102054.34
2022-11-29T06:54:52.184Z,102061.34
2022-11-29T06:57:00.608Z,102065.25
2022-11-29T06:59:14.188Z,102073.09
2022-11-29T07:01:43.999Z,102080.78
2022-11-29T07:03:49.159Z,102067.25
2022-11-29T07:05:52.270Z,102071.47
2022-11-29T07:07:57.474Z,102053.31
2022-11-29T07:10:04.907Z,102062.94
2022-11-29T07:12:08.105Z,102073.22
2022-11-29T07:14:11.240Z,102066.00
2022-11-29T07:16:42.424Z,102067.03
2022-11-29T07:19:02.135Z,102071.75
2022-11-29T07:21:28.602Z,102070.63
2022-11-29T07:24:01.416Z,102064.13
2022-11-29T07:26:31.926Z,102069.19
2022-11-29T07:29:07.481Z,102073.06
2022-11-29T07:31:36.215Z,102064.56
2022-11-29T07:34:06.282Z,102065.56
2022-11-29T07:36:22.527Z,102063.59
2022-11-29T07:38:47.149Z,102063.59
2022-11-29T07:41:03.419Z,102060.28
2022-11-29T07:43:15.172Z,102051.19
2022-11-29T07:45:32.321Z,102057.78
2022-11-29T07:47:36.088Z,102054.50
2022-11-29T07:49:39.173Z,102060.16
2022-11-29T07:51:42.006Z,102057.03
2022-11-29T07:53:45.628Z,102059.53
2022-11-29T07:55:49.660Z,102050.81
2022-11-29T07:57:53.288Z,102056.34
2022-11-29T07:59:56.057Z,102055.66
2022-11-29T08:01:59.517Z,102042.63
2022-11-29T08:04:02.565Z,102044.84
2022-11-29T08:06:05.435Z,102046.91
2022-11-29T08:08:08.325Z,102047.75
2022-11-29T08:29:11.202Z,102036.50
2022-11-29T08:31:14.209Z,102046.97
2022-11-29T08:33:16.694Z,102033.59
2022-11-29T08:35:21.179Z,102049.91
2022-11-29T08:37:23.689Z,102049.13
2022-11-29T08:39:26.218Z,102038.13
2022-11-29T08:45:41.078Z,102037.69
2022-11-29T08:47:43.825Z,102038.75
2022-11-29T08:50:01.349Z,102042.31
2022-11-29T08:52:28.169Z,102038.34
2022-11-29T08:54:30.799Z,102038.03
2022-11-29T08:57:16.419Z,102044.41
2022-11-29T08:58:56.040Z,102038.09
2022-11-29T09:00:58.612Z,102045.59
2022-11-29T09:03:24.937Z,102047.06
2022-11-29T09:05:27.546Z,102041.41
2022-11-29T09:07:30.151Z,102039.88
2022-11-29T09:09:32.680Z,102051.53
2022-11-29T09:11:36.414Z,102049.91
2022-11-29T09:13:41.256Z,102050.19
2022-11-29T09:15:43.829Z,102054.31
2022-11-29T09:17:46.501Z,102046.38
2022-11-29T09:19:49.145Z,102051.28
2022-11-29T09:21:51.716Z,102049.75
2022-11-29T09:23:59.297Z,102047.16
2022-11-29T09:26:02.207Z,102050.34
2022-11-29T09:28:04.941Z,102049.34
2022-11-29T09:30:08.693Z,102049.44
2022-11-29T09:32:11.327Z,102045.78
2022-11-29T09:34:15.225Z,102046.66
2022-11-29T09:36:17.955Z,102039.19
2022-11-29T09:38:22.524Z,102044.91
2022-11-29T09:40:37.493Z,102048.28
2022-11-29T09:43:15.312Z,102041.41
2022-11-29T09:45:21.340Z,102045.16
2022-11-29T09:47:33.191Z,102042.16
2022-11-29T09:49:54.281Z,102037.22
2022-11-29T09:52:28.452Z,102044.75
2022-11-29T09:54:36.731Z,102040.78
2022-11-29T09:56:47.735Z,102036.59
2022-11-29T09:58:59.071Z,102043.38
2022-11-29T10:01:06.656Z,102036.50
2022-11-29T10:03:37.323Z,102033.50
2022-11-29T10:05:51.042Z,102043.78
2022-11-29T10:08:03.435Z,102035.41
2022-11-29T10:10:22.996Z,102039.84
2022-11-29T10:12:57.854Z,102029.09
2022-11-29T10:15:13.219Z,102034.22
2022-11-29T10:17:24.842Z,102037.25
2022-11-29T10:19:30.231Z,102035.56
2022-11-29T10:21:36.833Z,102031.44
2022-11-29T10:23:46.515Z,102026.41
2022-11-29T10:25:52.806Z,102027.34
2022-11-29T10:27:55.613Z,102025.06
2022-11-29T10:30:01.083Z,102019.72
2022-11-29T10:32:14.192Z,102017.16
2022-11-29T10:34:20.097Z,102023.22
2022-11-29T10:36:42.435Z,102021.28
2022-11-29T10:38:48.049Z,102023.13
2022-11-29T10:40:59.071Z,102020.91
2022-11-29T10:43:02.533Z,102014.00
2022-11-29T10:45:27.766Z,102021.75
2022-11-29T10:47:31.910Z,102016.03
2022-11-29T10:49:36.464Z,102025.72
2022-11-29T10:51:39.212Z,102014.75
2022-11-29T10:53:42.473Z,102015.59
2022-11-29T10:56:00.499Z,102012.22
2022-11-29T10:58:14.896Z,102007.88
2022-11-29T11:00:17.803Z,101998.41
2022-11-29T11:02:24.375Z,102010.81
2022-11-29T11:04:43.315Z,102012.50
2022-11-29T11:06:48.401Z,102020.13
2022-11-29T11:09:14.817Z,102025.47
2022-11-29T11:11:32.181Z,102022.09
2022-11-29T11:13:36.681Z,102019.00
2022-11-29T11:15:39.230Z,102014.63
2022-11-29T11:18:05.537Z,102015.03
2022-11-29T11:20:25.098Z,102011.47
2022-11-29T11:22:30.876Z,102026.13
2022-11-29T11:24:39.509Z,102017.66
2022-11-29T11:26:44.829Z,102026.16
2022-11-29T11:29:01.974Z,102023.75
2022-11-29T11:31:09.259Z,102034.44
2022-11-29T11:33:20.216Z,102024.34
2022-11-29T11:35:24.626Z,102025.44
2022-11-29T11:37:35.882Z,102020.25
2022-11-29T11:39:41.186Z,102024.75
2022-11-29T11:42:04.703Z,102021.34
2022-11-29T11:44:58.540Z,102027.41
2022-11-29T11:47:02.785Z,102024.06
2022-11-29T11:49:14.296Z,102036.41
2022-11-29T11:51:28.583Z,102029.50
2022-11-29T11:53:36.523Z,102016.59
2022-11-29T11:55:46.540Z,102026.28
2022-11-29T11:58:07.700Z,102015.97
2022-11-29T12:01:03.041Z,102017.03
2022-11-29T12:03:04.996Z,102026.16
2022-11-29T12:05:19.705Z,102019.25
2022-11-29T12:08:07.313Z,102014.31
2022-11-29T12:10:16.627Z,102021.34
2022-11-29T12:12:26.109Z,102018.91
2022-11-29T12:14:31.643Z,102013.56
2022-11-29T12:16:39.438Z,102008.66
2022-11-29T12:18:51.937Z,102008.47
2022-11-29T12:21:21.834Z,102012.56
2022-11-29T12:23:31.425Z,102014.66
2022-11-29T12:25:43.344Z,102019.63
2022-11-29T12:27:48.677Z,102018.75
2022-11-29T12:29:52.294Z,102024.25
2022-11-29T12:32:00.253Z,102018.31
2022-11-29T12:34:08.905Z,102007.09
2022-11-29T12:36:35.006Z,102004.69
2022-11-29T12:38:49.767Z,102014.38
2022-11-29T12:41:14.020Z,102006.78
2022-11-29T12:43:48.527Z,102008.78
2022-11-29T12:46:28.465Z,102008.63
2022-11-29T12:48:55.629Z,102020.75
2022-11-29T12:51:36.682Z,102018.50
2022-11-29T12:56:41.164Z,102007.94
2022-11-29T12:58:46.696Z,102023.69
2022-11-29T13:01:12.973Z,102024.25
2022-11-29T13:03:27.401Z,102012.72
2022-11-29T13:11:07.459Z,102004.72
2022-11-29T13:13:40.235Z,102016.09
2022-11-29T13:15:52.765Z,102008.25
2022-11-29T13:18:13.166Z,102006.97
2022-11-29T13:20:34.777Z,102013.16
2022-11-29T13:22:49.222Z,102009.81
2022-11-29T13:25:01.349Z,102012.19
2022-11-29T13:27:07.482Z,102009.50
2022-11-29T13:29:17.049Z,102009.78
2022-11-29T13:31:22.770Z,102012.28
2022-11-29T13:33:52.336Z,102019.88
2022-11-29T13:36:06.706Z,102018.66
2022-11-29T13:38:36.958Z,102009.81
2022-11-29T13:40:53.260Z,102014.28
2022-11-29T13:43:23.572Z,102016.41
2022-11-29T13:45:42.671Z,102015.41
2022-11-29T13:47:59.508Z,102018.06
2022-11-29T13:50:07.485Z,102023.56
2022-11-29T13:52:23.084Z,102018.50
2022-11-29T13:54:32.412Z,102015.81
2022-11-29T13:56:47.907Z,102008.81
2022-11-29T13:58:54.492Z,102007.13
2022-11-29T14:01:06.808Z,102009.22
2022-11-29T14:03:25.487Z,101998.69
2022-11-29T14:05:29.849Z,102011.78
2022-11-29T14:07:33.410Z,102012.59
2022-11-29T14:09:44.256Z,102000.81
2022-11-29T14:12:17.238Z,102001.34
2022-11-29T14:14:26.647Z,101995.19
2022-11-29T14:16:47.476Z,102001.66
2022-11-29T14:19:05.332Z,101990.56
2022-11-29T14:21:08.292Z,101990.13
2022-11-29T14:23:15.198Z,101990.41
2022-11-29T14:27:57.437Z,101987.31
2022-11-29T14:30:02.824Z,101993.63
2022-11-29T14:32:30.220Z,101994.47
2022-11-29T14:34:38.201Z,101996.59
2022-11-29T14:37:15.441Z,101985.88
2022-11-29T14:39:27.435Z,101989.56
2022-11-29T14:41:43.248Z,101998.56
2022-11-29T14:43:45.931Z,101993.06
2022-11-29T14:46:08.491Z,101991.38
2022-11-29T14:48:45.736Z,101993.34
2022-11-29T14:50:48.345Z,101983.38
2022-11-29T14:52:51.884Z,101991.69
2022-11-29T14:55:26.426Z,101992.09
2022-11-29T14:57:47.392Z,102000.81
2022-11-29T14:59:52.942Z,102006.44
2022-11-29T15:01:56.905Z,101997.72
2022-11-29T15:04:06.862Z,101999.69
2022-11-29T15:06:18.211Z,101997.16
2022-11-29T15:08:33.247Z,101991.13
2022-11-29T15:10:48.163Z,101989.81
2022-11-29T15:12:52.675Z,101989.81
2022-11-29T15:15:12.272Z,101995.88
2022-11-29T15:17:45.731Z,101995.34
2022-11-29T15:19:56.241Z,102005.00
2022-11-29T15:22:19.652Z,101994.19
2022-11-29T15:24:28.033Z,101994.63
2022-11-29T15:26:32.315Z,101997.56
2022-11-29T15:28:34.864Z,101997.41
2022-11-29T15:30:40.055Z,101987.16
2022-11-29T15:32:43.815Z,101999.09
2022-11-29T15:34:51.823Z,101999.25
2022-11-29T15:36:54.433Z,101985.88
2022-11-29T15:38:59.311Z,101998.41
2022-11-29T15:41:01.917Z,101988.28
2022-11-29T15:43:19.356Z,101989.41
2022-11-29T15:45:30.769Z,101988.72
2022-11-29T15:47:33.307Z,101983.09
2022-11-29T15:49:35.880Z,101987.59
2022-11-29T15:51:39.357Z,101989.69
2022-11-29T15:53:50.002Z,101990.53
2022-11-29T15:55:56.274Z,101992.50
2022-11-29T15:58:07.037Z,101981.25
2022-11-29T16:00:24.291Z,101985.06
2022-11-29T16:02:32.806Z,101985.63
2022-11-29T16:04:46.436Z,101986.34
2022-11-29T16:06:50.544Z,101997.72
2022-11-29T16:08:54.759Z,101988.72
2022-11-29T16:10:57.947Z,101983.09
2022-11-29T16:13:23.134Z,101973.13
2022-11-29T16:15:28.658Z,101990.25
2022-11-29T16:17:33.897Z,101982.13
2022-11-29T16:19:38.151Z,101978.44
2022-11-29T16:21:43.981Z,101975.94
2022-11-29T16:23:46.940Z,101973.28
2022-11-29T16:26:19.180Z,101979.56
2022-11-29T16:28:22.384Z,101981.13
2022-11-29T16:30:28.244Z,101971.56
2022-11-29T16:32:34.726Z,101973.97
2022-11-29T16:34:43.093Z,101959.94
2022-11-29T16:36:46.007Z,101959.63
2022-11-29T16:38:52.951Z,101960.34
2022-11-29T16:41:08.184Z,101966.22
2022-11-29T16:43:41.193Z,101970.59
2022-11-29T16:45:44.103Z,101966.78
2022-11-29T16:47:58.082Z,101967.50
2022-11-29T16:50:03.504Z,101973.53
2022-11-29T16:52:24.982Z,101974.91
2022-11-29T16:54:33.973Z,101964.22
2022-11-29T16:56:39.209Z,101953.28
2022-11-29T16:59:20.491Z,101951.75
2022-11-29T17:01:27.076Z,101954.56
2022-11-29T17:03:29.704Z,101950.22
2022-11-29T17:05:32.462Z,101944.00
2022-11-29T17:07:37.941Z,101944.72
2022-11-29T17:09:40.677Z,101952.72
2022-11-29T17:11:43.419Z,101949.63
2022-11-29T17:13:49.034Z,101945.84
2022-11-29T17:15:51.826Z,101947.38
2022-11-29T17:17:54.673Z,101945.00
2022-11-29T17:19:57.379Z,101947.84
2022-11-29T17:22:00.136Z,101938.72
2022-11-29T17:24:02.737Z,101940.56
2022-11-29T17:26:05.499Z,101941.94
2022-11-29T17:28:08.193Z,101950.38
2022-11-29T17:30:11.539Z,101942.38
2022-11-29T17:32:14.230Z,101940.81
2022-11-29T17:34:17.043Z,101951.50
2022-11-29T17:36:21.079Z,101932.81
2022-11-29T17:38:25.077Z,101932.97
2022-11-29T17:40:27.760Z,101934.09
2022-11-29T17:42:30.446Z,101925.94
2022-11-29T17:44:34.516Z,101930.00
2022-11-29T17:46:37.712Z,101923.13
2022-11-29T17:48:40.892Z,101932.69
2022-11-29T17:50:43.632Z,101927.03
2022-11-29T17:52:46.377Z,101912.44
2022-11-29T17:54:49.154Z,101919.75
2022-11-29T17:56:52.297Z,101918.91
2022-11-29T17:58:56.891Z,101920.03
2022-11-29T18:01:19.989Z,101920.03
2022-11-29T18:03:23.105Z,101926.63
2022-11-29T18:05:30.129Z,101924.53
2022-11-29T18:07:55.503Z,101911.31
2022-11-29T18:09:58.202Z,101905.84
2022-11-29T18:12:01.323Z,101909.22
2022-11-29T18:14:04.356Z,101906.94
2022-11-29T18:16:10.198Z,101903.44
2022-11-29T18:18:12.842Z,101909.34
2022-11-29T18:20:15.542Z,101917.06
2022-11-29T18:22:18.279Z,101915.25
2022-11-29T18:24:20.990Z,101907.94
2022-11-29T18:26:25.185Z,101903.16
2022-11-29T18:28:29.274Z,101903.28
2022-11-29T18:30:31.928Z,101895.16
2022-11-29T18:32:34.685Z,101889.94
2022-11-29T18:34:37.362Z,101895.03
2022-11-29T18:36:45.273Z,101878.75
2022-11-29T18:38:48.806Z,101892.19
2022-11-29T18:40:51.497Z,101901.19
2022-11-29T18:42:54.067Z,101903.88
2022-11-29T18:44:58.841Z,101892.19
2022-11-29T18:47:01.706Z,101902.44
2022-11-29T18:49:06.910Z,101897.94
2022-11-29T18:51:20.658Z,101902.72
2022-11-29T18:53:23.260Z,101900.88
2022-11-29T18:55:26.362Z,101907.75
2022-11-29T18:57:29.035Z,101898.38
2022-11-29T18:59:31.711Z,101898.06
2022-11-29T19:01:38.003Z,101903.13
2022-11-29T19:03:43.385Z,101899.47
2022-11-29T19:05:54.374Z,101901.16
2022-11-29T19:07:57.087Z,101900.16
2022-11-29T19:10:00.183Z,101902.97
2022-11-29T19:12:03.967Z,101903.28
2022-11-29T19:14:12.975Z,101900.75
2022-11-29T19:16:18.412Z,101910.28
2022-11-29T19:18:22.102Z,101902.16
2022-11-29T19:20:24.716Z,101896.81
2022-11-29T19:22:27.645Z,101902.97
2022-11-29T19:24:30.249Z,101898.47
2022-11-29T19:26:33.732Z,101903.81
2022-11-29T19:28:37.905Z,101897.38
2022-11-29T19:30:40.653Z,101901.56
2022-11-29T19:32:44.062Z,101908.75
2022-11-29T19:34:46.746Z,101912.25
2022-11-29T19:36:49.337Z,101897.78
2022-11-29T19:38:54.115Z,101900.34
2022-11-29T19:40:57.149Z,101909.47
2022-11-29T19:42:59.695Z,101909.34
2022-11-29T19:45:16.538Z,101911.88
2022-11-29T19:47:19.997Z,101921.53
2022-11-29T19:49:22.617Z,101906.09
2022-11-29T19:51:26.463Z,101912.81
2022-11-29T19:53:29.788Z,101918.28
2022-11-29T19:55:33.961Z,101920.41
2022-11-29T19:57:37.308Z,101914.81
2022-11-29T19:59:39.955Z,101914.38
2022-11-29T20:01:43.140Z,101916.75
2022-11-29T20:03:46.315Z,101908.91
2022-11-29T20:05:55.933Z,101916.34
2022-11-29T20:07:58.655Z,101909.47
2022-11-29T20:10:01.321Z,101914.94
2022-11-29T20:12:06.351Z,101911.88
2022-11-29T20:14:11.929Z,101905.69
2022-11-29T20:16:18.607Z,101908.06
2022-11-29T20:18:21.338Z,101900.06
2022-11-29T20:20:24.075Z,101907.91
2022-11-29T20:22:26.764Z,101910.88
2022-11-29T20:24:33.371Z,101907.66
2022-11-29T20:26:41.019Z,101905.13
2022-11-29T20:28:44.517Z,101913.84
2022-11-29T20:30:47.142Z,101912.13
2022-11-29T20:32:49.861Z,101897.84
2022-11-29T20:34:52.720Z,101910.59
2022-11-29T20:37:27.391Z,101915.13
2022-11-29T20:39:42.147Z,101922.13
2022-11-29T20:41:53.666Z,101928.47
2022-11-29T20:44:02.030Z,101914.41
2022-11-29T20:46:04.796Z,101923.25
2022-11-29T20:48:14.587Z,101915.41
2022-11-29T20:50:24.039Z,101919.88
2022-11-29T20:52:26.882Z,101925.78
2022-11-29T20:54:29.537Z,101935.34
2022-11-29T20:56:32.231Z,101930.84
2022-11-29T20:58:34.954Z,101930.00
2022-11-29T21:00:37.563Z,101932.13
2022-11-29T21:02:40.223Z,101925.38
2022-11-29T21:04:42.821Z,101926.91
2022-11-29T21:06:45.716Z,101923.53
2022-11-29T21:08:49.030Z,101911.75
2022-11-29T21:10:52.789Z,101925.22
2022-11-29T21:12:56.306Z,101919.63
2022-11-29T21:14:59.187Z,101919.06
2022-11-29T21:17:02.116Z,101921.59
2022-11-29T21:19:05.113Z,101911.03
2022-11-29T21:21:24.943Z,101919.75
2022-11-29T21:23:37.591Z,101916.25
2022-11-29T21:26:19.244Z,101918.09
2022-11-29T21:28:28.267Z,101923.56
2022-11-29T21:30:31.055Z,101910.09
2022-11-29T21:32:34.318Z,101908.38
2022-11-29T21:34:36.870Z,101920.75
2022-11-29T21:36:40.179Z,101909.94
2022-11-29T21:38:42.912Z,101903.75
2022-11-29T21:40:45.512Z,101916.09
2022-11-29T21:42:48.109Z,101912.75
2022-11-29T21:44:50.710Z,101903.88
2022-11-29T21:46:53.347Z,101899.41
2022-11-29T21:48:56.007Z,101904.19
2022-11-29T21:50:58.545Z,101900.25
2022-11-29T21:53:01.056Z,101905.72
2022-11-29T21:55:04.047Z,101901.50
2022-11-29T21:57:06.697Z,101900.97
2022-11-29T21:59:09.292Z,101900.09
2022-11-29T22:01:16.479Z,101900.97
2022-11-29T22:03:19.616Z,101889.31
2022-11-29T22:05:22.179Z,101892.38
2022-11-29T22:07:24.807Z,101903.78
2022-11-29T22:09:27.417Z,101897.31
2022-11-29T22:11:31.111Z,101898.13
2022-11-29T22:13:34.644Z,101898.56
2022-11-29T22:15:37.261Z,101889.59
2022-11-29T22:17:40.636Z,101894.91
2022-11-29T22:19:43.264Z,101904.06
2022-11-29T22:21:49.052Z,101899.69
2022-11-29T22:23:52.740Z,101892.38
2022-11-29T22:25:55.340Z,101889.84
2022-11-29T22:27:57.937Z,101900.25
2022-11-29T22:30:00.526Z,101894.91
2022-11-29T22:32:03.322Z,101898.56
2022-11-29T22:34:05.939Z,101903.63
2022-11-29T22:36:11.305Z,101895.88
2022-11-29T22:38:13.952Z,101903.63
2022-11-29T22:40:17.200Z,101899.25
2022-11-29T22:42:19.868Z,101891.25
2022-11-29T22:44:26.029Z,101899.13
2022-11-29T22:46:29.783Z,101899.69
2022-11-29T22:48:38.423Z,101895.34
2022-11-29T22:50:41.701Z,101901.09
2022-11-29T22:52:44.269Z,101902.09
2022-11-29T22:54:47.242Z,101900.69
2022-11-29T22:56:50.120Z,101899.41
2022-11-29T22:58:53.215Z,101896.47
2022-11-29T23:01:14.321Z,101899.13
2022-11-29T23:03:16.974Z,101895.63
2022-11-29T23:05:19.632Z,101897.00
2022-11-29T23:07:22.249Z,101888.03
2022-11-29T23:09:24.961Z,101888.75
2022-11-29T23:11:30.455Z,101896.88
2022-11-29T23:13:35.712Z,101883.13
2022-11-29T23:15:38.322Z,101891.53
2022-11-29T23:17:40.993Z,101873.44
2022-11-29T23:19:43.515Z,101880.31
2022-11-29T23:21:46.613Z,101878.91
2022-11-29T23:23:55.872Z,101876.38
2022-11-29T23:25:59.511Z,101880.31
2022-11-29T23:28:02.104Z,101869.38
2022-11-29T23:30:06.301Z,101875.94
2022-11-29T23:32:09.033Z,101861.91
2022-11-29T23:34:11.772Z,101868.66
2022-11-29T23:36:14.889Z,101869.19
2022-11-29T23:38:18.094Z,101870.31
2022-11-29T23:40:20.709Z,101860.22
2022-11-29T23:42:23.856Z,101864.00
2022-11-29T23:44:26.349Z,101867.50
2022-11-29T23:46:28.883Z,101857.84
2022-11-29T23:48:31.421Z,101851.22
2022-11-29T23:50:34.306Z,101856.56
2022-11-29T23:52:37.511Z,101852.50
2022-11-29T23:54:40.138Z,101855.06
2022-11-29T23:56:42.713Z,101856.19
2022-11-29T23:58:45.700Z,101854.06
